createdAt,value
2022-10-19T00:02:19.628Z,71.37
2022-10-19T00:04:46.197Z,71.17
2022-10-19T00:07:12.694Z,71.26
2022-10-19T00:09:39.841Z,71.37
2022-10-19T00:12:06.369Z,71.17
2022-10-19T00:14:32.969Z,71.05
2022-10-19T00:16:59.563Z,71.17
2022-10-19T00:19:27.395Z,71.03
2022-10-19T00:21:54.437Z,71.20
2022-10-19T00:24:21.226Z,71.17
2022-10-19T00:26:47.752Z,71.04
2022-10-19T00:29:15.427Z,71.05
2022-10-19T00:31:44.953Z,70.90
2022-10-19T00:34:11.972Z,71.09
2022-10-19T00:36:40.365Z,71.06
2022-10-19T00:39:08.815Z,71.04
2022-10-19T00:41:36.810Z,71.21
2022-10-19T00:44:03.245Z,71.07
2022-10-19T00:46:31.817Z,71.00
2022-10-19T00:49:09.838Z,71.00
2022-10-19T00:51:40.689Z,70.97
2022-10-19T00:54:08.312Z,70.90
2022-10-19T00:56:35.896Z,70.94
2022-10-19T00:59:04.509Z,70.85
2022-10-19T01:01:31.745Z,70.88
2022-10-19T01:03:58.774Z,70.71
2022-10-19T01:06:25.598Z,70.87
2022-10-19T01:08:52.135Z,70.81
2022-10-19T01:11:30.459Z,70.69
2022-10-19T01:14:21.797Z,70.75
2022-10-19T01:17:11.215Z,70.72
2022-10-19T01:20:05.566Z,70.61
2022-10-19T01:23:01.407Z,70.71
2022-10-19T01:26:05.285Z,70.73
2022-10-19T01:29:22.980Z,70.71
2022-10-19T01:31:57.818Z,70.72
2022-10-19T01:34:45.135Z,70.64
2022-10-19T01:37:17.291Z,70.83
2022-10-19T01:39:53.090Z,70.70
2022-10-19T01:42:42.279Z,70.73
2022-10-19T01:45:29.111Z,70.74
2022-10-19T01:48:12.179Z,70.81
2022-10-19T01:50:46.506Z,70.61
2022-10-19T01:53:14.312Z,70.83
2022-10-19T01:55:43.214Z,70.86
2022-10-19T01:58:12.191Z,70.90
2022-10-19T02:00:41.298Z,71.06
2022-10-19T02:03:09.175Z,71.10
2022-10-19T02:05:36.613Z,71.04
2022-10-19T02:08:06.624Z,71.13
2022-10-19T02:10:34.894Z,71.04
2022-10-19T02:13:03.140Z,71.09
2022-10-19T02:15:32.010Z,70.96
2022-10-19T02:18:00.004Z,71.12
2022-10-19T02:20:27.405Z,70.91
2022-10-19T02:22:54.293Z,70.90
2022-10-19T02:25:21.424Z,70.85
2022-10-19T02:27:47.973Z,70.74
2022-10-19T02:30:16.628Z,70.76
2022-10-19T02:32:44.039Z,70.58
2022-10-19T02:35:12.119Z,70.85
2022-10-19T02:37:39.104Z,70.67
2022-10-19T02:40:06.620Z,70.66
2022-10-19T02:42:36.649Z,70.61
2022-10-19T02:45:12.443Z,70.56
2022-10-19T02:47:42.981Z,70.53
2022-10-19T02:50:10.244Z,70.38
2022-10-19T02:52:38.164Z,70.44
2022-10-19T02:55:06.140Z,70.37
2022-10-19T02:57:32.924Z,70.25
2022-10-19T02:59:59.897Z,70.27
2022-10-19T03:02:26.557Z,70.07
2022-10-19T03:04:53.054Z,70.16
2022-10-19T03:07:20.974Z,70.04
2022-10-19T03:09:47.752Z,69.86
2022-10-19T03:12:14.882Z,69.95
2022-10-19T03:14:41.428Z,70.00
2022-10-19T03:17:08.114Z,69.87
2022-10-19T03:19:35.410Z,69.81
2022-10-19T03:22:01.933Z,69.71
2022-10-19T03:24:30.112Z,69.72
2022-10-19T03:26:56.659Z,69.65
2022-10-19T03:29:23.192Z,69.56
2022-10-19T03:31:49.747Z,69.63
2022-10-19T03:34:16.403Z,69.68
2022-10-19T03:36:42.937Z,69.74
2022-10-19T03:39:14.311Z,69.41
2022-10-19T03:41:41.350Z,69.43
2022-10-19T03:44:08.688Z,69.51
2022-10-19T03:46:35.862Z,69.66
2022-10-19T03:49:03.006Z,69.37
2022-10-19T03:51:30.615Z,69.42
2022-10-19T03:54:14.013Z,69.30
2022-10-19T03:56:40.678Z,69.34
2022-10-19T03:59:07.461Z,69.29
2022-10-19T04:01:39.396Z,69.31
2022-10-19T04:04:18.480Z,69.25
2022-10-19T04:06:47.186Z,69.29
2022-10-19T04:09:16.442Z,69.51
2022-10-19T04:11:43.378Z,69.55
2022-10-19T04:14:15.926Z,69.37
2022-10-19T04:16:49.545Z,69.22
2022-10-19T04:19:16.954Z,69.42
2022-10-19T04:21:44.753Z,69.27
2022-10-19T04:24:16.248Z,69.36
2022-10-19T04:26:48.271Z,69.22
2022-10-19T04:29:15.700Z,68.97
2022-10-19T04:31:42.814Z,69.18
2022-10-19T04:34:09.482Z,69.29
2022-10-19T04:36:36.124Z,68.97
2022-10-19T04:39:03.641Z,69.06
2022-10-19T04:41:30.212Z,69.09
2022-10-19T04:43:58.557Z,69.07
2022-10-19T04:46:26.475Z,68.99
2022-10-19T04:48:53.676Z,68.90
2022-10-19T04:51:20.559Z,69.15
2022-10-19T04:53:47.334Z,68.98
2022-10-19T04:56:26.136Z,68.98
2022-10-19T04:59:00.151Z,69.07
2022-10-19T05:01:27.922Z,69.11
2022-10-19T05:04:01.996Z,68.65
2022-10-19T05:06:30.033Z,68.84
2022-10-19T05:08:56.810Z,68.74
2022-10-19T05:11:23.797Z,68.76
2022-10-19T05:13:50.388Z,68.95
2022-10-19T05:16:19.087Z,68.92
2022-10-19T05:18:56.138Z,68.68
2022-10-19T05:21:23.051Z,69.05
2022-10-19T05:23:52.278Z,69.02
2022-10-19T05:26:21.030Z,69.10
2022-10-19T05:28:56.346Z,68.78
2022-10-19T05:31:25.782Z,68.84
2022-10-19T05:33:52.416Z,69.06
2022-10-19T05:36:27.746Z,68.98
2022-10-19T05:38:56.315Z,69.03
2022-10-19T05:41:23.959Z,69.09
2022-10-19T05:43:58.137Z,68.70
2022-10-19T05:46:25.827Z,68.85
2022-10-19T05:48:52.768Z,68.97
2022-10-19T05:51:21.153Z,68.83
2022-10-19T05:53:47.742Z,69.14
2022-10-19T05:56:19.469Z,68.82
2022-10-19T05:58:46.037Z,69.16
2022-10-19T06:01:13.981Z,69.12
2022-10-19T06:03:40.554Z,69.02
2022-10-19T06:06:08.352Z,68.72
2022-10-19T06:08:35.279Z,68.72
2022-10-19T06:11:07.568Z,68.78
2022-10-19T06:13:34.354Z,68.69
2022-10-19T06:16:00.874Z,68.65
2022-10-19T06:18:27.480Z,68.60
2022-10-19T06:20:54.061Z,68.72
2022-10-19T06:23:20.635Z,68.71
2022-10-19T06:25:47.179Z,68.39
2022-10-19T06:28:13.707Z,68.58
2022-10-19T06:30:41.442Z,68.69
2022-10-19T06:33:08.104Z,68.42
2022-10-19T06:35:34.644Z,68.31
2022-10-19T06:38:01.403Z,68.22
2022-10-19T06:40:27.989Z,68.41
2022-10-19T06:42:55.508Z,68.38
2022-10-19T06:45:22.282Z,68.23
2022-10-19T06:47:48.878Z,68.17
2022-10-19T06:50:15.622Z,67.98
2022-10-19T06:52:42.232Z,68.06
2022-10-19T06:55:09.314Z,68.16
2022-10-19T06:57:36.218Z,67.81
2022-10-19T07:00:04.671Z,67.76
2022-10-19T07:02:31.428Z,67.61
2022-10-19T07:04:57.932Z,67.80
2022-10-19T07:07:24.671Z,67.66
2022-10-19T07:09:51.233Z,67.76
2022-10-19T07:12:17.773Z,67.51
2022-10-19T07:14:44.268Z,67.50
2022-10-19T07:17:12.013Z,67.56
2022-10-19T07:19:38.711Z,67.55
2022-10-19T07:22:05.282Z,67.52
2022-10-19T07:24:31.798Z,67.56
2022-10-19T07:26:58.277Z,67.55
2022-10-19T07:29:24.836Z,67.59
2022-10-19T07:31:51.369Z,67.49
2022-10-19T07:34:17.923Z,67.26
2022-10-19T07:36:48.041Z,67.43
2022-10-19T07:39:19.495Z,67.37
2022-10-19T07:41:46.457Z,67.21
2022-10-19T07:44:15.946Z,67.37
2022-10-19T07:46:43.059Z,67.15
2022-10-19T07:49:13.295Z,67.14
2022-10-19T07:51:40.855Z,67.01
2022-10-19T07:54:07.731Z,67.13
2022-10-19T07:56:35.143Z,66.82
2022-10-19T07:59:02.786Z,66.86
2022-10-19T08:01:35.195Z,66.87
2022-10-19T08:06:49.039Z,66.87
2022-10-19T08:09:33.342Z,66.85
2022-10-19T08:12:02.422Z,66.75
2022-10-19T08:14:28.941Z,66.77
2022-10-19T08:16:55.447Z,66.45
2022-10-19T08:19:22.862Z,66.53
2022-10-19T08:21:49.606Z,66.59
2022-10-19T08:24:18.329Z,66.40
2022-10-19T08:26:45.190Z,66.43
2022-10-19T08:29:17.240Z,66.11
2022-10-19T08:31:44.941Z,66.12
2022-10-19T08:34:12.575Z,66.11
2022-10-19T08:36:39.458Z,66.02
2022-10-19T08:39:08.174Z,66.08
2022-10-19T08:41:44.377Z,66.18
2022-10-19T08:44:38.784Z,65.87
2022-10-19T08:47:26.944Z,66.21
2022-10-19T08:49:53.637Z,66.19
2022-10-19T08:52:23.061Z,66.30
2022-10-19T08:54:51.220Z,66.09
2022-10-19T08:57:55.914Z,66.29
2022-10-19T09:00:42.123Z,66.52
2022-10-19T09:03:37.537Z,66.44
2022-10-19T09:06:22.944Z,66.37
2022-10-19T09:08:54.677Z,66.54
2022-10-19T09:11:25.839Z,66.45
2022-10-19T09:14:05.155Z,66.44
2022-10-19T09:16:33.078Z,66.68
2022-10-19T09:18:59.616Z,66.75
2022-10-19T09:21:47.479Z,66.47
2022-10-19T09:24:38.083Z,66.53
2022-10-19T09:27:05.734Z,66.64
2022-10-19T09:29:45.116Z,66.47
2022-10-19T09:32:19.523Z,66.62
2022-10-19T09:34:54.625Z,66.46
2022-10-19T09:37:25.963Z,66.44
2022-10-19T09:39:54.998Z,66.79
2022-10-19T09:42:37.176Z,66.80
2022-10-19T09:45:44.267Z,66.51
2022-10-19T09:48:17.407Z,66.76
2022-10-19T09:50:44.914Z,66.86
2022-10-19T09:53:19.713Z,66.71
2022-10-19T09:55:51.274Z,66.76
2022-10-19T09:58:18.795Z,66.75
2022-10-19T10:00:47.049Z,66.86
2022-10-19T10:03:32.768Z,66.86
2022-10-19T10:06:03.445Z,66.92
2022-10-19T10:08:32.670Z,66.48
2022-10-19T10:11:14.446Z,66.74
2022-10-19T10:13:43.137Z,66.75
2022-10-19T10:16:13.556Z,66.81
2022-10-19T10:18:51.807Z,66.63
2022-10-19T10:21:25.751Z,66.74
2022-10-19T10:24:23.132Z,66.81
2022-10-19T10:26:52.211Z,66.82
2022-10-19T10:29:20.220Z,66.72
2022-10-19T10:31:49.905Z,66.77
2022-10-19T10:34:38.752Z,66.67
2022-10-19T10:37:20.759Z,66.60
2022-10-19T10:39:55.822Z,66.54
2022-10-19T10:42:37.731Z,66.57
2022-10-19T10:45:05.041Z,66.46
2022-10-19T10:47:31.888Z,66.37
2022-10-19T10:50:01.268Z,66.67
2022-10-19T10:52:30.910Z,66.50
2022-10-19T10:55:04.131Z,66.50
2022-10-19T10:57:33.809Z,66.27
2022-10-19T11:00:03.101Z,66.29
2022-10-19T11:02:40.501Z,66.21
2022-10-19T11:05:46.392Z,66.38
2022-10-19T11:08:12.962Z,66.47
2022-10-19T11:10:43.792Z,66.35
2022-10-19T11:13:17.419Z,66.53
2022-10-19T11:15:54.182Z,66.23
2022-10-19T11:18:29.873Z,66.59
2022-10-19T11:21:06.544Z,66.37
2022-10-19T11:23:39.583Z,66.54
2022-10-19T11:26:33.947Z,66.56
2022-10-19T11:29:14.898Z,66.24
2022-10-19T11:31:45.875Z,66.56
2022-10-19T11:34:44.937Z,66.44
2022-10-19T11:37:32.798Z,66.47
2022-10-19T11:40:21.842Z,66.67
2022-10-19T11:43:12.841Z,66.66
2022-10-19T11:46:12.917Z,66.41
2022-10-19T11:48:51.691Z,66.61
2022-10-19T11:51:40.065Z,66.35
2022-10-19T11:54:24.505Z,66.38
2022-10-19T11:57:10.574Z,66.51
2022-10-19T11:59:50.459Z,66.54
2022-10-19T12:02:40.027Z,66.56
2022-10-19T12:05:18.945Z,66.48
2022-10-19T12:07:48.990Z,66.75
2022-10-19T12:10:24.815Z,66.76
2022-10-19T12:12:55.097Z,66.77
2022-10-19T12:15:29.933Z,66.41
2022-10-19T12:18:00.517Z,66.72
2022-10-19T12:20:59.759Z,66.80
2022-10-19T12:23:34.663Z,66.79
2022-10-19T12:26:05.030Z,66.82
2022-10-19T12:28:34.400Z,66.61
2022-10-19T12:31:02.583Z,66.92
2022-10-19T12:33:31.899Z,66.87
2022-10-19T12:36:13.745Z,66.74
2022-10-19T12:38:45.972Z,66.83
2022-10-19T12:41:22.847Z,66.92
2022-10-19T12:44:22.239Z,66.70
2022-10-19T12:47:00.793Z,66.84
2022-10-19T12:49:30.674Z,66.91
2022-10-19T12:51:58.725Z,67.14
2022-10-19T12:54:31.741Z,67.04
2022-10-19T12:56:59.468Z,66.81
2022-10-19T12:59:31.304Z,66.79
2022-10-19T13:01:58.892Z,67.05
2022-10-19T13:04:33.739Z,66.82
2022-10-19T13:07:06.276Z,66.97
2022-10-19T13:09:36.047Z,66.77
2022-10-19T13:12:21.658Z,66.75
2022-10-19T13:15:34.560Z,66.88
2022-10-19T13:18:18.202Z,66.80
2022-10-19T13:20:53.527Z,67.10
2022-10-19T13:23:19.981Z,66.93
2022-10-19T13:25:46.567Z,66.74
2022-10-19T13:28:14.977Z,66.95
2022-10-19T13:30:42.257Z,66.88
2022-10-19T13:33:31.428Z,66.86
2022-10-19T13:36:00.989Z,66.87
2022-10-19T13:38:37.644Z,67.12
2022-10-19T13:41:21.498Z,66.92
2022-10-19T13:44:03.533Z,67.18
2022-10-19T13:46:29.981Z,67.00
2022-10-19T13:49:18.421Z,67.07
2022-10-19T13:52:04.055Z,67.15
2022-10-19T13:54:36.700Z,67.23
2022-10-19T13:57:31.947Z,67.06
2022-10-19T14:00:20.064Z,67.19
2022-10-19T14:02:55.980Z,67.23
2022-10-19T14:05:55.170Z,67.09
2022-10-19T14:08:37.833Z,67.17
2022-10-19T14:11:12.022Z,67.44
2022-10-19T14:13:38.552Z,67.22
2022-10-19T14:16:05.507Z,67.07
2022-10-19T14:18:33.879Z,67.08
2022-10-19T14:21:02.641Z,67.26
2022-10-19T14:23:42.745Z,67.23
2022-10-19T14:26:15.747Z,67.30
2022-10-19T14:28:43.114Z,67.03
2022-10-19T14:31:11.620Z,67.28
2022-10-19T14:33:39.791Z,67.52
2022-10-19T14:36:07.683Z,67.26
2022-10-19T14:38:37.515Z,67.41
2022-10-19T14:41:18.954Z,67.40
2022-10-19T14:43:45.629Z,67.23
2022-10-19T14:46:15.916Z,67.33
2022-10-19T14:48:45.407Z,67.36
2022-10-19T14:51:29.838Z,67.39
2022-10-19T14:54:00.855Z,67.35
2022-10-19T14:56:34.827Z,67.30
2022-10-19T14:59:05.394Z,67.44
2022-10-19T15:01:32.105Z,67.53
2022-10-19T15:03:58.677Z,67.38
2022-10-19T15:06:28.449Z,67.52
2022-10-19T15:09:03.668Z,67.33
2022-10-19T15:11:38.127Z,67.34
2022-10-19T15:14:15.996Z,67.54
2022-10-19T15:16:57.221Z,67.50
2022-10-19T15:19:29.018Z,67.36
2022-10-19T15:22:13.745Z,67.53
2022-10-19T15:24:41.803Z,67.65
2022-10-19T15:27:19.359Z,67.38
2022-10-19T15:29:56.508Z,67.68
2022-10-19T15:32:25.882Z,67.50
2022-10-19T15:34:52.437Z,67.58
2022-10-19T15:37:22.278Z,67.77
2022-10-19T15:39:50.716Z,67.49
2022-10-19T15:42:40.860Z,67.61
2022-10-19T15:45:32.138Z,67.74
2022-10-19T15:48:10.622Z,67.71
2022-10-19T15:50:40.841Z,67.77
2022-10-19T15:53:07.361Z,67.94
2022-10-19T15:55:33.952Z,68.00
2022-10-19T15:58:00.706Z,67.90
2022-10-19T16:00:28.833Z,67.90
2022-10-19T16:02:55.378Z,67.95
2022-10-19T16:05:22.789Z,68.18
2022-10-19T16:07:49.434Z,68.15
2022-10-19T16:10:21.668Z,68.05
2022-10-19T16:12:48.360Z,68.03
2022-10-19T16:15:18.506Z,68.12
2022-10-19T16:17:47.093Z,68.16
2022-10-19T16:20:13.871Z,68.15
2022-10-19T16:22:40.375Z,68.17
2022-10-19T16:25:07.159Z,68.33
2022-10-19T16:27:34.066Z,68.28
2022-10-19T16:30:00.880Z,68.33
2022-10-19T16:32:27.435Z,68.18
2022-10-19T16:34:53.990Z,68.39
2022-10-19T16:37:20.490Z,68.57
2022-10-19T16:39:46.980Z,68.38
2022-10-19T16:42:13.509Z,68.56
2022-10-19T16:44:40.004Z,68.56
2022-10-19T16:47:06.526Z,68.43
2022-10-19T16:49:33.045Z,68.62
2022-10-19T16:52:01.615Z,68.77
2022-10-19T16:54:32.812Z,68.75
2022-10-19T16:56:59.394Z,68.93
2022-10-19T16:59:25.940Z,68.91
2022-10-19T17:01:53.821Z,68.91
2022-10-19T17:04:20.761Z,68.95
2022-10-19T17:06:47.453Z,68.75
2022-10-19T17:12:01.347Z,69.13
2022-10-19T17:14:27.876Z,68.97
2022-10-19T17:16:54.377Z,69.02
2022-10-19T17:19:21.032Z,68.96
2022-10-19T17:21:49.388Z,68.93
2022-10-19T17:24:21.660Z,69.08
2022-10-19T17:26:50.338Z,69.15
2022-10-19T17:29:16.849Z,69.09
2022-10-19T17:31:43.675Z,69.20
2022-10-19T17:34:10.363Z,69.03
2022-10-19T17:39:10.930Z,69.27
2022-10-19T17:41:37.444Z,69.14
2022-10-19T17:44:05.322Z,69.23
2022-10-19T17:46:34.016Z,69.27
2022-10-19T17:49:01.008Z,69.23
2022-10-19T17:51:30.166Z,69.36
2022-10-19T17:54:01.309Z,69.32
2022-10-19T17:56:28.125Z,69.28
2022-10-19T17:58:55.833Z,69.41
2022-10-19T18:01:23.101Z,69.51
2022-10-19T18:03:50.414Z,69.42
2022-10-19T18:06:29.482Z,69.60
2022-10-19T18:08:56.874Z,69.50
2022-10-19T18:11:55.921Z,69.60
2022-10-19T18:14:22.427Z,69.53
2022-10-19T18:16:49.092Z,69.67
2022-10-19T18:19:16.626Z,69.58
2022-10-19T18:21:45.087Z,69.66
2022-10-19T18:24:16.465Z,69.30
2022-10-19T18:26:43.352Z,69.66
2022-10-19T18:29:16.358Z,69.42
2022-10-19T18:31:43.174Z,69.57
2022-10-19T18:34:14.025Z,69.20
2022-10-19T18:36:40.618Z,69.41
2022-10-19T18:39:07.735Z,69.61
2022-10-19T18:41:34.279Z,69.44
2022-10-19T18:44:03.659Z,69.48
2022-10-19T18:46:31.489Z,69.46
2022-10-19T18:48:59.500Z,69.50
2022-10-19T18:51:26.143Z,69.56
2022-10-19T18:53:52.846Z,69.51
2022-10-19T18:56:21.511Z,69.51
2022-10-19T18:58:48.488Z,69.58
2022-10-19T19:01:26.827Z,69.66
2022-10-19T19:03:56.210Z,69.69
2022-10-19T19:06:28.974Z,69.60
2022-10-19T19:08:56.993Z,69.67
2022-10-19T19:11:29.593Z,69.55
2022-10-19T19:14:07.580Z,69.61
2022-10-19T19:16:37.238Z,69.76
2022-10-19T19:19:04.588Z,69.83
2022-10-19T19:21:32.302Z,69.83
2022-10-19T19:24:01.235Z,69.84
2022-10-19T19:26:31.039Z,69.87
2022-10-19T19:28:57.758Z,69.88
2022-10-19T19:31:24.891Z,69.89
2022-10-19T19:33:51.618Z,69.95
2022-10-19T19:36:19.351Z,70.13
2022-10-19T19:38:46.009Z,70.10
2022-10-19T19:41:14.285Z,70.15
2022-10-19T19:43:42.482Z,69.95
2022-10-19T19:46:14.623Z,69.99
2022-10-19T19:48:42.594Z,69.96
2022-10-19T19:51:11.033Z,69.97
2022-10-19T19:53:38.107Z,70.04
2022-10-19T19:56:07.130Z,70.26
2022-10-19T19:58:34.413Z,70.01
2022-10-19T20:01:11.887Z,69.92
2022-10-19T20:03:38.894Z,70.03
2022-10-19T20:06:05.986Z,70.04
2022-10-19T20:08:33.105Z,70.27
2022-10-19T20:11:04.886Z,70.10
2022-10-19T20:13:31.944Z,70.37
2022-10-19T20:16:02.414Z,70.28
2022-10-19T20:18:29.757Z,70.45
2022-10-19T20:21:01.085Z,69.91
2022-10-19T20:23:28.321Z,70.34
2022-10-19T20:25:56.578Z,70.29
2022-10-19T20:28:26.906Z,70.40
2022-10-19T20:31:05.092Z,70.31
2022-10-19T20:33:33.049Z,70.36
2022-10-19T20:36:09.119Z,70.19
2022-10-19T20:38:37.254Z,70.40
2022-10-19T20:41:08.181Z,70.27
2022-10-19T20:43:36.478Z,70.18
2022-10-19T20:46:14.048Z,70.33
2022-10-19T20:48:40.868Z,70.33
2022-10-19T20:51:09.352Z,70.38
2022-10-19T20:53:36.086Z,70.35
2022-10-19T20:56:07.070Z,70.57
2022-10-19T20:58:34.187Z,70.61
2022-10-19T21:01:12.815Z,70.54
2022-10-19T21:03:40.027Z,70.60
2022-10-19T21:06:08.203Z,70.85
2022-10-19T21:08:35.989Z,70.79
2022-10-19T21:11:11.942Z,70.82
2022-10-19T21:13:39.049Z,70.88
2022-10-19T21:18:41.266Z,70.83
2022-10-19T21:21:12.920Z,71.04
2022-10-19T21:23:39.339Z,70.66
2022-10-19T21:26:06.027Z,70.72
2022-10-19T21:28:32.711Z,70.73
2022-10-19T21:31:06.842Z,70.80
2022-10-19T21:33:33.357Z,70.77
2022-10-19T21:36:05.478Z,71.01
2022-10-19T21:38:32.773Z,70.74
2022-10-19T21:41:00.479Z,71.11
2022-10-19T21:43:27.616Z,70.85
2022-10-19T21:45:54.307Z,70.86
2022-10-19T21:48:21.179Z,70.85
2022-10-19T21:50:48.775Z,71.05
2022-10-19T21:53:20.521Z,71.15
2022-10-19T21:55:46.909Z,71.09
2022-10-19T21:58:13.764Z,71.06
2022-10-19T22:00:40.531Z,71.17
2022-10-19T22:03:07.246Z,71.25
2022-10-19T22:05:33.778Z,71.00
2022-10-19T22:08:00.334Z,70.93
2022-10-19T22:10:26.816Z,71.14
2022-10-19T22:12:53.367Z,70.96
2022-10-19T22:15:19.853Z,71.20
2022-10-19T22:17:46.548Z,71.19
2022-10-19T22:20:13.114Z,71.00
2022-10-19T22:22:39.578Z,71.09
2022-10-19T22:25:06.343Z,71.39
2022-10-19T22:27:33.786Z,71.19
2022-10-19T22:30:00.254Z,71.38
2022-10-19T22:32:26.736Z,71.27
2022-10-19T22:34:53.236Z,71.04
2022-10-19T22:37:19.722Z,71.28
2022-10-19T22:39:46.395Z,71.39
2022-10-19T22:43:09.069Z,71.17
2022-10-19T22:46:31.539Z,71.22
2022-10-19T22:49:54.009Z,71.34
2022-10-19T22:52:57.384Z,71.25
2022-10-19T22:55:23.864Z,71.16
2022-10-19T22:57:50.352Z,71.11
2022-10-19T23:00:16.922Z,71.47
2022-10-19T23:02:43.433Z,71.45
2022-10-19T23:05:09.931Z,71.39
2022-10-19T23:07:38.133Z,71.43
2022-10-19T23:10:05.822Z,71.45
2022-10-19T23:12:32.295Z,71.40
2022-10-19T23:14:58.752Z,71.57
2022-10-19T23:17:25.206Z,71.40
2022-10-19T23:19:51.668Z,71.48
2022-10-19T23:22:18.187Z,71.23
2022-10-19T23:24:44.643Z,71.49
2022-10-19T23:27:13.047Z,71.51
2022-10-19T23:29:39.767Z,71.56
2022-10-19T23:32:06.374Z,71.48
2022-10-19T23:34:33.019Z,71.38
2022-10-19T23:36:59.494Z,71.45
2022-10-19T23:39:25.929Z,71.50
2022-10-19T23:41:52.680Z,71.28
2022-10-19T23:44:19.158Z,71.21
2022-10-19T23:46:45.712Z,71.37
2022-10-19T23:49:12.284Z,71.63
2022-10-19T23:51:38.726Z,71.30
2022-10-19T23:54:05.236Z,71.52
2022-10-19T23:56:31.701Z,71.44
2022-10-19T23:58:58.168Z,71.51
